Chemehuevi Valley, California
Current Conditions -  °F | °C
As of 11:56 AM on Monday 24 Nov 2014 (Local Time) from KEED Reporting Station
Clear Clear  
Wind Chill: 69°   Ceiling: Unl
Heat Index: 69°   Visibility: 10mi
Dew Point: 10°   Wind: 20mph
Humidity: 10%   Direction: 20°NNE
Pressure: 30.29"   Gusts: 25mph
Location:  34.5025°N, 114.671°W
Report Text: KEED 241956Z AUTO 02017G22KT 10SM CLR 21/M12 A3029 RMK AO2 SLP241 T02061122
Loading
Personal Weather Stations






























Interactive Weather Map New forecast layout! Learn more

10-Day Weather Forecast

Advertisements
Track Severe Weather on mobile